Time;durP1;ratioP1;P1;durP2;ratioP2;P2;SDS_P1;SDS_P2;PMS_P1;PMS_P2;Temp;Humidity;BMP_temperature;BMP_pressure;BME280_temperature;BME280_humidity;BME280_pressure;Samples;Min_cycle;Max_cycle;Signal;HPM_P1;HPM_P2
2022/07/15 00:01:58;;;;;;;2.08;1.05;;;22.10;56.50;;;;;;5050742;28;20053;-72
2022/07/15 00:04:25;;;;;;;3.22;1.13;;;22.00;56.40;;;;;;5052034;28;20120;-72
2022/07/15 00:06:52;;;;;;;3.03;1.20;;;22.00;56.50;;;;;;5051932;28;20055;-72
2022/07/15 00:09:20;;;;;;;1.85;1.00;;;22.00;56.50;;;;;;5050733;28;20128;-72
2022/07/15 00:11:47;;;;;;;1.75;1.13;;;22.00;56.50;;;;;;5052041;28;20055;-72
2022/07/15 00:14:13;;;;;;;1.17;0.90;;;22.00;56.50;;;;;;5050097;28;20065;-72
2022/07/15 00:16:40;;;;;;;2.25;1.05;;;22.00;56.50;;;;;;5051831;28;20490;-72
2022/07/15 00:19:07;;;;;;;2.05;1.10;;;22.00;56.50;;;;;;5051659;28;20136;-72
2022/07/15 00:21:34;;;;;;;1.58;0.90;;;22.00;56.60;;;;;;5050866;28;20147;-72
2022/07/15 00:24:00;;;;;;;2.65;1.00;;;22.00;56.60;;;;;;5067223;28;20055;-72
2022/07/15 00:26:28;;;;;;;1.95;0.90;;;22.00;56.70;;;;;;5050611;28;20076;-72
2022/07/15 00:28:55;;;;;;;1.95;0.93;;;22.00;56.60;;;;;;5050414;28;20482;-72
2022/07/15 00:31:22;;;;;;;2.45;1.17;;;21.90;56.60;;;;;;5050320;28;20056;-72
2022/07/15 00:33:48;;;;;;;1.38;1.00;;;21.90;56.50;;;;;;5051122;28;20061;-72
2022/07/15 00:36:15;;;;;;;2.72;1.00;;;21.90;56.60;;;;;;5050482;28;20052;-72
2022/07/15 00:38:42;;;;;;;2.47;1.05;;;21.90;56.50;;;;;;5051380;28;20131;-72
2022/07/15 00:41:09;;;;;;;2.00;1.13;;;21.90;56.60;;;;;;5050172;28;20064;-72
2022/07/15 00:43:37;;;;;;;2.20;1.20;;;21.90;56.60;;;;;;5051124;28;20123;-72
2022/07/15 00:46:04;;;;;;;1.80;0.93;;;21.90;56.60;;;;;;5050414;28;20056;-72
2022/07/15 00:48:30;;;;;;;1.67;1.00;;;21.90;56.60;;;;;;5049486;28;20057;-72
2022/07/15 00:50:57;;;;;;;2.53;1.05;;;21.90;56.60;;;;;;5049684;28;20417;-72
2022/07/15 00:53:24;;;;;;;1.70;1.05;;;21.90;56.70;;;;;;5051043;28;20081;-72
2022/07/15 00:55:51;;;;;;;1.90;1.02;;;21.90;56.70;;;;;;5051280;28;20632;-72
2022/07/15 00:58:20;;;;;;;1.50;0.88;;;21.90;56.70;;;;;;5051114;28;20053;-72
2022/07/15 01:00:48;;;;;;;2.33;1.13;;;21.80;56.60;;;;;;5048871;28;20120;-72
2022/07/15 01:03:15;;;;;;;1.70;1.02;;;21.80;56.60;;;;;;5049736;28;20439;-72
2022/07/15 01:05:42;;;;;;;2.53;1.23;;;21.80;56.60;;;;;;5050911;28;20409;-72
2022/07/15 01:08:10;;;;;;;1.10;0.90;;;21.80;56.60;;;;;;5049983;28;20148;-72
2022/07/15 01:10:36;;;;;;;1.90;0.90;;;21.80;56.70;;;;;;5049311;28;20053;-72
2022/07/15 01:13:04;;;;;;;2.17;1.00;;;21.80;56.70;;;;;;5049525;28;20546;-72
2022/07/15 01:15:32;;;;;;;1.42;0.82;;;21.70;56.60;;;;;;5050328;28;20135;-72
2022/07/15 01:18:00;;;;;;;1.30;0.85;;;21.80;56.70;;;;;;5049673;28;20064;-72
2022/07/15 01:20:27;;;;;;;1.58;0.95;;;21.70;56.70;;;;;;5050469;28;20136;-72
2022/07/15 01:22:55;;;;;;;2.80;1.13;;;21.70;56.60;;;;;;5050568;28;20053;-72
2022/07/15 01:25:22;;;;;;;1.27;0.90;;;21.80;56.70;;;;;;5050486;28;20132;-72
2022/07/15 01:27:48;;;;;;;1.63;1.10;;;21.70;56.70;;;;;;5050150;28;20496;-72
2022/07/15 01:30:16;;;;;;;1.27;0.98;;;21.70;56.60;;;;;;5049857;28;20044;-72
2022/07/15 01:32:43;;;;;;;1.50;1.00;;;21.70;56.60;;;;;;5049012;28;20057;-72
2022/07/15 01:35:10;;;;;;;2.95;1.40;;;21.70;56.60;;;;;;5048984;28;20109;-72
2022/07/15 01:37:36;;;;;;;2.15;1.13;;;21.70;56.60;;;;;;5049309;28;20144;-72
2022/07/15 01:40:08;;;;;;;1.65;1.05;;;21.70;56.70;;;;;;5049306;28;20055;-72
2022/07/15 01:42:34;;;;;;;2.50;1.00;;;21.70;56.80;;;;;;5048702;28;20664;-72
2022/07/15 01:45:01;;;;;;;1.35;0.90;;;21.70;56.80;;;;;;5048761;28;20051;-72
2022/07/15 01:47:28;;;;;;;1.65;1.00;;;21.70;56.70;;;;;;5050205;28;20041;-72
2022/07/15 01:49:54;;;;;;;1.52;0.90;;;21.60;56.70;;;;;;5048983;28;20533;-72
2022/07/15 01:52:21;;;;;;;2.38;1.17;;;21.70;56.70;;;;;;5048803;28;20045;-72
2022/07/15 01:54:50;;;;;;;1.50;0.93;;;21.70;56.70;;;;;;5048431;28;20048;-72
2022/07/15 01:57:18;;;;;;;1.90;0.90;;;21.70;56.80;;;;;;5065787;28;20056;-72
2022/07/15 01:59:45;;;;;;;2.35;1.02;;;21.60;56.70;;;;;;5048379;28;20049;-72
2022/07/15 02:02:11;;;;;;;1.13;0.80;;;21.60;56.70;;;;;;5049638;28;20131;-72
2022/07/15 02:04:38;;;;;;;4.15;1.10;;;21.60;56.80;;;;;;5049140;28;20133;-72
2022/07/15 02:07:05;;;;;;;1.23;1.00;;;21.60;56.70;;;;;;5032219;28;20099;-72
2022/07/15 02:09:32;;;;;;;5.03;1.45;;;21.60;56.80;;;;;;5050064;28;20052;-72
2022/07/15 02:11:59;;;;;;;1.92;1.05;;;21.60;56.80;;;;;;5049553;28;20240;-72
2022/07/15 02:14:27;;;;;;;1.23;0.85;;;21.60;56.80;;;;;;5031747;28;20048;-72
2022/07/15 02:16:53;;;;;;;2.17;0.85;;;22.00;56.90;;;;;;5048313;28;20478;-72
2022/07/15 02:19:20;;;;;;;1.98;0.85;;;21.60;56.80;;;;;;5049660;28;20140;-72
2022/07/15 02:21:47;;;;;;;2.95;1.10;;;21.60;56.80;;;;;;5049560;28;20390;-72
2022/07/15 02:24:14;;;;;;;1.77;1.00;;;21.50;56.70;;;;;;5048266;28;20076;-72
2022/07/15 02:26:44;;;;;;;1.30;0.70;;;21.60;58.20;;;;;;5049496;28;20135;-72
2022/07/15 02:29:11;;;;;;;1.42;0.85;;;21.50;56.70;;;;;;5048285;28;20107;-72
2022/07/15 02:31:39;;;;;;;1.85;1.05;;;21.50;56.70;;;;;;5049011;28;20127;-72
2022/07/15 02:34:06;;;;;;;2.72;1.10;;;21.50;56.80;;;;;;5064523;28;20059;-72
2022/07/15 02:36:33;;;;;;;1.58;0.88;;;21.50;56.70;;;;;;5048130;28;20041;-72
2022/07/15 02:38:59;;;;;;;1.55;1.00;;;21.50;56.70;;;;;;5049190;28;20180;-72
2022/07/15 02:41:26;;;;;;;1.60;0.90;;;21.50;56.80;;;;;;5049046;28;20053;-72
2022/07/15 02:43:53;;;;;;;2.17;0.90;;;21.50;56.80;;;;;;5048795;28;20580;-72
2022/07/15 02:46:19;;;;;;;1.48;0.95;;;21.50;56.80;;;;;;5048734;28;20124;-72
2022/07/15 02:48:47;;;;;;;1.95;1.00;;;21.50;56.70;;;;;;5049254;28;20529;-72
2022/07/15 02:51:14;;;;;;;1.42;1.00;;;21.40;56.70;;;;;;5049414;28;20045;-72
2022/07/15 02:53:41;;;;;;;2.13;1.05;;;21.40;56.70;;;;;;5047630;28;20067;-72
2022/07/15 02:56:09;;;;;;;2.35;1.20;;;21.50;56.80;;;;;;5048979;28;20049;-72
2022/07/15 02:58:35;;;;;;;2.08;1.00;;;21.50;56.80;;;;;;5047996;28;20084;-72
2022/07/15 03:01:02;;;;;;;1.52;0.90;;;21.40;56.70;;;;;;5047127;28;20163;-72
2022/07/15 03:03:29;;;;;;;1.45;1.00;;;21.40;56.70;;;;;;5048548;28;20053;-72
2022/07/15 03:05:57;;;;;;;1.40;0.93;;;21.40;56.80;;;;;;5047298;28;20397;-72
2022/07/15 03:08:24;;;;;;;1.38;0.88;;;21.40;56.70;;;;;;5048948;28;20430;-72
2022/07/15 03:10:51;;;;;;;2.25;0.85;;;21.40;56.70;;;;;;5048887;28;20758;-72
2022/07/15 03:13:18;;;;;;;2.17;1.00;;;21.40;56.80;;;;;;5048423;28;20044;-73
2022/07/15 03:15:44;;;;;;;2.28;1.02;;;21.70;58.40;;;;;;5028952;28;20055;-75
2022/07/15 03:18:12;;;;;;;1.33;0.75;;;21.40;56.80;;;;;;5034378;28;20084;-75
2022/07/15 03:20:38;;;;;;;2.42;1.02;;;21.40;56.80;;;;;;5030908;28;20638;-75
2022/07/15 03:23:06;;;;;;;1.85;0.90;;;21.30;56.70;;;;;;5047084;28;20139;-75
2022/07/15 03:25:33;;;;;;;1.77;1.00;;;21.30;56.70;;;;;;5046991;28;20141;-75
2022/07/15 03:28:00;;;;;;;4.32;1.50;;;21.40;56.70;;;;;;5048449;28;20120;-75
2022/07/15 03:30:28;;;;;;;1.92;0.90;;;21.30;56.70;;;;;;5046824;28;20077;-75
2022/07/15 03:32:55;;;;;;;1.45;0.98;;;21.30;56.70;;;;;;5046617;28;20068;-75
2022/07/15 03:35:24;;;;;;;1.42;0.90;;;21.30;56.70;;;;;;5046260;28;20484;-75
2022/07/15 03:37:51;;;;;;;1.15;0.90;;;21.30;56.70;;;;;;5064013;28;20688;-75
2022/07/15 03:40:19;;;;;;;2.70;1.33;;;21.30;56.70;;;;;;5046745;28;20065;-75
2022/07/15 03:42:46;;;;;;;1.10;0.82;;;21.30;56.70;;;;;;5044607;28;20548;-75
2022/07/15 03:45:12;;;;;;;1.48;0.80;;;21.30;56.70;;;;;;5046698;28;20041;-75
2022/07/15 03:47:39;;;;;;;1.85;0.90;;;21.30;56.70;;;;;;5048086;28;20717;-75
2022/07/15 03:50:06;;;;;;;2.10;1.00;;;21.20;56.70;;;;;;5063892;28;20082;-75
2022/07/15 03:52:33;;;;;;;1.55;0.90;;;21.30;56.70;;;;;;5046807;28;20057;-75
2022/07/15 03:55:00;;;;;;;1.88;0.90;;;21.30;56.70;;;;;;5046104;28;20128;-75
2022/07/15 03:57:28;;;;;;;1.98;1.00;;;21.30;56.70;;;;;;5046699;28;20060;-75
2022/07/15 03:59:55;;;;;;;3.97;1.00;;;21.20;56.60;;;;;;5047075;28;20053;-75
2022/07/15 04:02:21;;;;;;;2.22;1.00;;;21.20;56.60;;;;;;5045902;28;20136;-75
2022/07/15 04:04:48;;;;;;;2.17;0.93;;;21.20;56.60;;;;;;5046894;28;20045;-75
2022/07/15 04:07:15;;;;;;;1.25;0.90;;;21.20;56.60;;;;;;5046913;28;20398;-75
2022/07/15 04:09:41;;;;;;;1.50;0.95;;;21.20;56.60;;;;;;5046943;28;20053;-75
2022/07/15 04:12:10;;;;;;;2.55;1.08;;;21.20;56.50;;;;;;5047093;28;20140;-75
2022/07/15 04:14:38;;;;;;;2.75;0.95;;;21.20;56.50;;;;;;5047230;28;20041;-75
2022/07/15 04:17:05;;;;;;;2.35;0.95;;;21.30;56.70;;;;;;5051252;28;20071;-75
2022/07/15 04:19:32;;;;;;;1.52;0.90;;;21.20;56.60;;;;;;5051917;28;20056;-73
2022/07/15 04:21:58;;;;;;;2.33;0.95;;;21.20;56.70;;;;;;5033600;28;20049;-74
2022/07/15 04:24:25;;;;;;;1.90;0.90;;;21.20;56.70;;;;;;5050709;28;20049;-73
2022/07/15 04:26:53;;;;;;;1.25;0.80;;;21.20;56.70;;;;;;5050702;28;20153;-73
2022/07/15 04:29:20;;;;;;;1.55;1.10;;;21.20;56.80;;;;;;5050599;28;20136;-73
2022/07/15 04:31:48;;;;;;;1.75;0.90;;;21.20;56.80;;;;;;5033925;28;20067;-74
2022/07/15 04:34:15;;;;;;;0.73;0.70;;;21.20;56.80;;;;;;5050322;28;20056;-74
2022/07/15 04:36:42;;;;;;;1.90;0.90;;;21.20;56.80;;;;;;5050352;28;20052;-73
2022/07/15 04:39:10;;;;;;;1.48;0.95;;;21.10;56.80;;;;;;5050750;28;20057;-72
2022/07/15 04:41:37;;;;;;;2.17;1.35;;;21.20;56.80;;;;;;5049785;28;20057;-72
2022/07/15 04:44:04;;;;;;;2.28;1.10;;;21.10;56.80;;;;;;5050515;28;20131;-72
2022/07/15 04:46:30;;;;;;;3.30;1.00;;;21.10;56.80;;;;;;5050241;28;20059;-72
2022/07/15 04:51:43;;;;;;;2.90;1.00;;;21.10;56.80;;;;;;5050711;28;20596;-72
2022/07/15 04:54:10;;;;;;;1.25;0.90;;;21.10;56.90;;;;;;5051599;28;20060;-72
2022/07/15 04:56:37;;;;;;;1.25;0.82;;;21.10;56.90;;;;;;5051135;28;20037;-72
2022/07/15 04:59:03;;;;;;;1.85;1.08;;;21.10;56.90;;;;;;5049920;28;20045;-72
2022/07/15 05:01:30;;;;;;;1.52;0.80;;;21.10;56.90;;;;;;5049797;28;20052;-72
2022/07/15 05:03:59;;;;;;;1.73;1.05;;;21.10;56.90;;;;;;5049946;28;20139;-72
2022/07/15 05:06:25;;;;;;;1.27;0.90;;;21.00;56.80;;;;;;5051157;28;20053;-72
2022/07/15 05:08:52;;;;;;;1.40;0.80;;;21.10;56.90;;;;;;5049683;28;20143;-72
2022/07/15 05:11:19;;;;;;;1.67;1.00;;;21.10;56.80;;;;;;5049441;28;20049;-73
2022/07/15 05:13:45;;;;;;;1.10;0.80;;;21.00;58.80;;;;;;5049895;28;20045;-73
2022/07/15 05:16:12;;;;;;;1.30;0.90;;;21.00;56.80;;;;;;5049623;28;20110;-73
2022/07/15 05:18:40;;;;;;;1.42;0.80;;;21.00;56.80;;;;;;5050010;28;20063;-73
2022/07/15 05:21:08;;;;;;;1.50;0.80;;;20.90;56.80;;;;;;5049907;28;20106;-73
2022/07/15 05:23:35;;;;;;;1.27;0.80;;;21.00;56.80;;;;;;5049810;28;20061;-73
2022/07/15 05:26:02;;;;;;;2.10;0.80;;;21.10;56.90;;;;;;5050646;28;20048;-73
2022/07/15 05:28:29;;;;;;;1.77;0.93;;;21.00;56.80;;;;;;5048723;28;20053;-73
2022/07/15 05:30:55;;;;;;;1.35;1.10;;;21.10;56.90;;;;;;5049529;28;20053;-73
2022/07/15 05:33:22;;;;;;;1.23;0.90;;;21.10;56.90;;;;;;5050413;28;20049;-73
2022/07/15 05:35:49;;;;;;;1.38;0.90;;;21.00;56.80;;;;;;5049672;28;20136;-73
2022/07/15 05:38:17;;;;;;;0.90;0.80;;;21.00;56.80;;;;;;5049431;28;20442;-73
2022/07/15 05:40:44;;;;;;;1.98;1.05;;;21.90;59.20;;;;;;5048999;28;20137;-73
2022/07/15 05:43:10;;;;;;;1.50;0.93;;;21.10;56.90;;;;;;5049211;28;20053;-72
2022/07/15 05:45:37;;;;;;;1.05;0.98;;;21.10;56.90;;;;;;5049047;28;20132;-73
2022/07/15 05:48:04;;;;;;;1.52;0.82;;;21.10;56.90;;;;;;5048944;28;20642;-73
2022/07/15 05:50:31;;;;;;;2.10;0.75;;;21.10;56.90;;;;;;5049060;28;20167;-73
2022/07/15 05:52:58;;;;;;;1.13;0.80;;;21.10;56.90;;;;;;5048401;28;20053;-73
2022/07/15 05:55:26;;;;;;;1.80;1.00;;;21.20;56.90;;;;;;5049135;28;20053;-73
2022/07/15 05:57:53;;;;;;;2.28;1.10;;;21.30;56.90;;;;;;5049012;28;20059;-73
2022/07/15 06:00:19;;;;;;;1.80;0.80;;;21.30;56.80;;;;;;5049040;28;20530;-73
2022/07/15 06:02:46;;;;;;;1.42;0.80;;;21.40;56.70;;;;;;5048400;28;20053;-73
2022/07/15 06:05:13;;;;;;;1.38;0.90;;;21.40;56.60;;;;;;5048982;28;20081;-73
2022/07/15 06:07:41;;;;;;;1.02;0.85;;;21.40;56.50;;;;;;5049320;28;20061;-73
2022/07/15 06:10:08;;;;;;;1.27;0.80;;;21.50;56.60;;;;;;5048776;28;20075;-73
2022/07/15 06:12:36;;;;;;;1.38;0.80;;;21.40;56.50;;;;;;5049935;28;20157;-73
2022/07/15 06:15:03;;;;;;;1.70;0.90;;;21.40;56.40;;;;;;5048633;28;20045;-73
2022/07/15 06:17:31;;;;;;;1.40;0.82;;;21.40;56.40;;;;;;5048757;28;20088;-73
2022/07/15 06:19:57;;;;;;;1.17;0.80;;;21.40;56.40;;;;;;5048509;28;20060;-73
2022/07/15 06:22:24;;;;;;;2.42;0.90;;;21.40;56.40;;;;;;5048160;28;20629;-72
2022/07/15 06:24:51;;;;;;;0.85;0.80;;;21.40;56.40;;;;;;5048323;28;20131;-73
2022/07/15 06:27:18;;;;;;;1.73;0.80;;;21.40;56.40;;;;;;5048636;28;20673;-74
2022/07/15 06:29:46;;;;;;;2.25;1.17;;;21.50;56.50;;;;;;5048430;28;20053;-73
2022/07/15 06:32:12;;;;;;;2.47;0.90;;;21.60;56.50;;;;;;5048074;28;20482;-73
2022/07/15 06:34:39;;;;;;;1.17;0.70;;;21.70;56.50;;;;;;5047867;28;20055;-72
2022/07/15 06:37:06;;;;;;;1.42;0.90;;;21.80;56.40;;;;;;5048242;28;20045;-72
2022/07/15 06:39:33;;;;;;;1.40;0.90;;;22.00;56.30;;;;;;5048855;28;20110;-72
2022/07/15 06:42:00;;;;;;;1.48;0.70;;;22.20;56.10;;;;;;5048856;28;20140;-72
2022/07/15 06:44:26;;;;;;;1.20;0.70;;;22.30;55.80;;;;;;5048139;28;20136;-72
2022/07/15 06:46:54;;;;;;;2.13;0.88;;;22.50;55.70;;;;;;5048783;28;20074;-71
2022/07/15 06:49:21;;;;;;;0.73;0.65;;;22.70;55.50;;;;;;5049145;28;20052;-75
2022/07/15 06:51:48;;;;;;;1.02;0.70;;;22.80;55.30;;;;;;5048316;28;20052;-74
2022/07/15 06:54:15;;;;;;;0.70;0.57;;;23.00;55.10;;;;;;5049115;28;20049;-72
2022/07/15 06:56:41;;;;;;;1.33;0.90;;;23.10;54.90;;;;;;5047952;28;20055;-73
2022/07/15 06:59:08;;;;;;;2.25;1.05;;;23.20;54.60;;;;;;5047798;28;20067;-71
2022/07/15 07:01:35;;;;;;;2.85;0.90;;;23.20;54.50;;;;;;5048354;28;20127;-71
2022/07/15 07:04:03;;;;;;;1.55;0.60;;;23.20;54.40;;;;;;5048955;28;20059;-71
2022/07/15 07:06:30;;;;;;;1.42;0.90;;;23.20;54.30;;;;;;5047413;28;20133;-71
2022/07/15 07:08:56;;;;;;;1.13;0.80;;;23.10;54.20;;;;;;5047994;28;20081;-71
2022/07/15 07:11:23;;;;;;;1.88;1.10;;;23.20;54.20;;;;;;5047461;28;20136;-71
2022/07/15 07:13:50;;;;;;;1.02;0.65;;;23.10;54.20;;;;;;5048785;28;20830;-71
2022/07/15 07:16:17;;;;;;;3.70;0.70;;;23.10;54.20;;;;;;5047640;28;20049;-71
2022/07/15 07:18:45;;;;;;;1.80;0.80;;;23.10;54.10;;;;;;5047632;28;20080;-71
2022/07/15 07:21:13;;;;;;;1.40;0.70;;;23.10;54.10;;;;;;5047811;28;20061;-71
2022/07/15 07:23:40;;;;;;;0.95;0.65;;;23.10;54.10;;;;;;5047398;28;20053;-71
2022/07/15 07:26:07;;;;;;;1.50;0.60;;;23.10;54.10;;;;;;5046906;28;20041;-72
2022/07/15 07:28:34;;;;;;;1.20;0.80;;;23.30;54.10;;;;;;5047421;28;20052;-71
2022/07/15 07:31:00;;;;;;;2.30;0.70;;;23.10;54.00;;;;;;5048433;28;20138;-71
2022/07/15 07:33:27;;;;;;;2.38;0.77;;;23.10;54.00;;;;;;5047726;28;20055;-71
2022/07/15 07:35:54;;;;;;;1.52;0.70;;;23.10;54.00;;;;;;5047615;28;20072;-71
2022/07/15 07:38:22;;;;;;;1.88;0.85;;;23.10;54.00;;;;;;5048238;28;20049;-71
2022/07/15 07:40:49;;;;;;;1.65;0.75;;;23.20;54.10;;;;;;5048056;28;20049;-71
2022/07/15 07:43:17;;;;;;;2.25;0.70;;;23.20;54.10;;;;;;5047535;28;20132;-71
2022/07/15 07:45:43;;;;;;;7.35;0.95;;;23.20;54.00;;;;;;5046582;28;20861;-71
2022/07/15 07:48:10;;;;;;;3.00;0.57;;;23.30;54.00;;;;;;5046671;28;20055;-71
2022/07/15 07:50:37;;;;;;;0.75;0.60;;;23.40;54.00;;;;;;5048237;28;20049;-71
2022/07/15 07:53:03;;;;;;;0.80;0.57;;;23.50;53.90;;;;;;5051830;28;20048;-72
2022/07/15 07:55:32;;;;;;;1.70;1.20;;;23.60;53.80;;;;;;5050639;28;20059;-71
2022/07/15 07:57:59;;;;;;;3.08;1.00;;;23.70;53.70;;;;;;5051298;28;20429;-71
2022/07/15 08:00:27;;;;;;;0.80;0.70;;;23.80;53.70;;;;;;5050838;28;20057;-72
2022/07/15 08:02:54;;;;;;;0.50;0.50;;;23.90;53.60;;;;;;5051012;28;20061;-71
2022/07/15 08:05:20;;;;;;;1.75;0.80;;;24.00;53.50;;;;;;5051180;28;20059;-72
2022/07/15 08:07:47;;;;;;;1.48;0.70;;;24.00;53.40;;;;;;5051300;28;20045;-72
2022/07/15 08:10:16;;;;;;;0.80;0.50;;;24.00;53.30;;;;;;5051219;28;20064;-72
2022/07/15 08:12:44;;;;;;;1.10;0.70;;;24.00;53.30;;;;;;5051702;28;20474;-72
2022/07/15 08:15:11;;;;;;;1.10;0.60;;;24.00;53.20;;;;;;5051735;28;20053;-72
2022/07/15 08:17:38;;;;;;;1.30;0.73;;;24.00;53.20;;;;;;5052059;28;20043;-72
2022/07/15 08:20:07;;;;;;;0.68;0.60;;;24.00;53.20;;;;;;5052214;28;20128;-72
2022/07/15 08:22:34;;;;;;;1.35;0.73;;;24.00;53.20;;;;;;5067574;28;20098;-73
2022/07/15 08:25:00;;;;;;;1.52;0.88;;;24.00;53.20;;;;;;5067659;28;20144;-73
2022/07/15 08:27:27;;;;;;;1.80;0.60;;;23.90;53.10;;;;;;5050801;28;20048;-71
2022/07/15 08:29:55;;;;;;;0.70;0.60;;;23.90;53.10;;;;;;5050588;28;20621;-73
2022/07/15 08:32:22;;;;;;;0.55;0.55;;;23.90;53.20;;;;;;5050395;28;20091;-72
2022/07/15 08:34:49;;;;;;;1.58;0.75;;;24.00;53.30;;;;;;5050759;28;20162;-73
2022/07/15 08:37:16;;;;;;;2.17;0.60;;;24.00;53.40;;;;;;5050281;28;20073;-72
2022/07/15 08:39:42;;;;;;;1.27;0.70;;;24.00;53.40;;;;;;5050499;28;20577;-71
2022/07/15 08:42:09;;;;;;;5.45;0.88;;;24.10;53.50;;;;;;5054317;28;20055;-71
2022/07/15 08:44:36;;;;;;;0.93;0.52;;;24.10;53.50;;;;;;5050221;28;20044;-72
2022/07/15 08:47:05;;;;;;;1.35;0.60;;;24.10;53.50;;;;;;5050246;28;20136;-72
2022/07/15 08:49:33;;;;;;;2.05;0.70;;;24.10;53.30;;;;;;5049833;28;20052;-72
2022/07/15 08:52:00;;;;;;;6.18;0.73;;;24.20;53.40;;;;;;5048452;28;20045;-72
2022/07/15 08:54:27;;;;;;;1.15;0.70;;;24.10;53.40;;;;;;5049455;28;20132;-72
2022/07/15 08:56:54;;;;;;;1.23;0.60;;;24.00;53.30;;;;;;5050453;28;20045;-72
2022/07/15 08:59:21;;;;;;;3.97;0.68;;;23.90;53.30;;;;;;5047788;28;20140;-72
2022/07/15 09:01:49;;;;;;;6.07;1.85;;;23.80;53.40;;;;;;5047867;28;20120;-72
2022/07/15 09:04:17;;;;;;;1.23;0.80;;;23.80;53.60;;;;;;5049300;28;20052;-72
2022/07/15 09:06:45;;;;;;;0.82;0.70;;;23.70;53.60;;;;;;5049705;28;20472;-72
2022/07/15 09:09:28;;;;;;;0.90;0.60;;;23.60;53.60;;;;;;5049840;28;20055;-72
2022/07/15 09:11:57;;;;;;;0.98;0.55;;;23.60;53.60;;;;;;5050977;28;20580;-72
2022/07/15 09:14:25;;;;;;;0.60;0.60;;;23.70;53.80;;;;;;5066875;28;20088;-72
2022/07/15 09:16:58;;;;;;;0.80;0.60;;;23.60;53.70;;;;;;5049948;28;20055;-73
2022/07/15 09:19:26;;;;;;;1.08;0.60;;;23.60;53.70;;;;;;5050184;28;20159;-72
2022/07/15 09:22:01;;;;;;;2.88;0.68;;;23.60;53.70;;;;;;5049580;28;20055;-75
2022/07/15 09:24:28;;;;;;;0.40;0.40;;;23.60;53.70;;;;;;5045804;28;20477;-73
2022/07/15 09:26:55;;;;;;;0.70;0.60;;;23.60;53.80;;;;;;5048659;28;20136;-73
2022/07/15 09:35:04;;;;;;;0.52;0.45;;;23.70;53.80;;;;;;5048215;28;20391;-72
2022/07/15 09:37:31;;;;;;;0.40;0.32;;;23.70;53.70;;;;;;5049040;28;20075;-72
2022/07/15 09:39:58;;;;;;;1.58;0.68;;;23.80;53.70;;;;;;5049142;28;20049;-72
2022/07/15 09:42:24;;;;;;;1.10;0.60;;;23.80;53.70;;;;;;5050393;28;20072;-72
2022/07/15 09:44:51;;;;;;;1.05;0.70;;;23.80;53.60;;;;;;5048786;28;20049;-72
2022/07/15 09:47:19;;;;;;;0.80;0.45;;;23.80;54.20;;;;;;5049442;28;20056;-72
2022/07/15 09:49:47;;;;;;;0.80;0.50;;;23.80;53.60;;;;;;5048773;28;20140;-73
2022/07/15 09:52:15;;;;;;;1.92;0.88;;;23.80;53.60;;;;;;5066869;28;20116;-71
2022/07/15 09:54:43;;;;;;;1.23;0.50;;;23.80;53.60;;;;;;5053131;28;20051;-72
2022/07/15 09:57:11;;;;;;;0.82;0.60;;;23.80;53.60;;;;;;5049570;28;20510;-74
2022/07/15 09:59:50;;;;;;;0.60;0.57;;;23.80;53.90;;;;;;4153061;28;10000938;-73
2022/07/15 10:02:22;;;;;;;2.03;0.50;;;23.80;53.60;;;;;;5013028;28;20045;-73
2022/07/15 10:04:49;;;;;;;0.85;0.50;;;23.80;54.00;;;;;;5012136;28;20048;-73
2022/07/15 10:07:17;;;;;;;0.93;0.50;;;23.80;53.50;;;;;;5010053;28;20057;-74
2022/07/15 10:09:44;;;;;;;1.52;0.68;;;23.90;53.40;;;;;;4992353;28;20157;-74
2022/07/15 10:12:15;;;;;;;2.08;0.50;;;23.80;53.40;;;;;;5006738;28;20061;-74
2022/07/15 10:14:55;;;;;;;0.98;0.50;;;23.90;53.50;;;;;;5011054;28;20526;-73
2022/07/15 10:17:40;;;;;;;1.88;0.60;;;23.90;53.50;;;;;;4115429;28;10000989;-73
2022/07/15 10:20:37;;;;;;;1.38;0.50;;;23.90;53.50;;;;;;5011122;28;20046;-75
2022/07/15 10:23:12;;;;;;;0.63;0.40;;;23.90;53.40;;;;;;5000998;28;20050;-74
2022/07/15 10:25:55;;;;;;;4.40;0.90;;;23.90;53.40;;;;;;4006411;28;10000792;-73
2022/07/15 10:28:25;;;;;;;2.35;0.43;;;23.90;53.40;;;;;;4492684;28;10001291;-73
2022/07/15 10:31:12;;;;;;;0.60;0.60;;;23.90;53.40;;;;;;4139762;28;10000923;-74
2022/07/15 10:33:39;;;;;;;0.85;0.60;;;23.90;53.40;;;;;;5008220;28;20054;-74
2022/07/15 10:36:07;;;;;;;1.33;0.80;;;23.80;53.50;;;;;;5011006;28;20060;-74
2022/07/15 10:38:35;;;;;;;0.47;0.40;;;23.80;53.50;;;;;;5010714;28;20473;-74
2022/07/15 10:41:06;;;;;;;2.17;0.73;;;23.80;53.40;;;;;;5010587;28;20438;-74
2022/07/15 10:43:49;;;;;;;1.30;0.73;;;23.80;53.50;;;;;;5010847;28;20058;-74
2022/07/15 10:46:21;;;;;;;1.45;0.55;;;23.80;53.70;;;;;;5010911;28;20140;-74
2022/07/15 10:48:49;;;;;;;3.15;0.57;;;23.70;53.80;;;;;;5011268;28;20062;-73
2022/07/15 10:51:44;;;;;;;2.30;0.60;;;23.70;53.90;;;;;;5011986;28;20046;-73
2022/07/15 10:54:49;;;;;;;0.73;0.50;;;23.80;53.80;;;;;;5010441;28;20110;-74
2022/07/15 10:57:19;;;;;;;0.60;0.50;;;23.70;53.70;;;;;;5012492;28;20050;-73
2022/07/15 10:59:51;;;;;;;1.73;0.65;;;23.80;53.90;;;;;;5012634;28;20133;-73
2022/07/15 11:02:20;;;;;;;2.42;0.93;;;23.60;53.70;;;;;;5012572;28;20060;-72
2022/07/15 11:04:46;;;;;;;1.20;0.65;;;23.70;53.80;;;;;;5012198;28;20084;-72
2022/07/15 11:07:36;;;;;;;1.25;0.55;;;23.70;53.80;;;;;;5010439;28;20050;-72
2022/07/15 11:10:17;;;;;;;2.08;0.57;;;23.70;53.70;;;;;;5007305;28;20133;-73
2022/07/15 11:12:59;;;;;;;1.00;0.43;;;23.60;53.60;;;;;;5010710;28;20132;-73
2022/07/15 11:15:26;;;;;;;2.13;0.60;;;23.60;53.70;;;;;;5010518;28;20529;-74
2022/07/15 11:17:56;;;;;;;1.95;0.50;;;23.60;53.70;;;;;;5011037;28;20586;-74
2022/07/15 11:20:25;;;;;;;1.63;0.80;;;23.60;53.70;;;;;;5010676;28;20065;-74
2022/07/15 11:22:53;;;;;;;1.75;0.60;;;23.50;53.70;;;;;;5011010;28;20058;-74
2022/07/15 11:25:23;;;;;;;0.65;0.40;;;23.50;53.70;;;;;;5011533;28;20522;-74
2022/07/15 11:28:01;;;;;;;1.08;0.70;;;23.50;53.70;;;;;;5012198;28;20054;-74
2022/07/15 11:30:28;;;;;;;2.28;0.75;;;23.60;53.80;;;;;;5011246;28;20057;-74
2022/07/15 11:32:56;;;;;;;0.40;0.40;;;23.50;54.40;;;;;;5010777;28;20058;-73
2022/07/15 11:35:22;;;;;;;1.48;0.55;;;23.50;53.80;;;;;;5010420;28;20064;-74
2022/07/15 11:37:49;;;;;;;0.77;0.70;;;23.50;53.80;;;;;;5010849;28;20056;-74
2022/07/15 11:44:29;;;;;;;1.38;0.75;;;23.50;53.70;;;;;;5010189;28;20140;-74
2022/07/15 11:45:59;;;;;;;1.48;0.60;;;23.50;53.80;;;;;;5027148;28;20487;-74
2022/07/15 11:48:26;;;;;;;1.73;0.63;;;23.50;53.80;;;;;;5011491;28;20049;-73
2022/07/15 11:50:54;;;;;;;1.38;0.70;;;23.50;53.80;;;;;;4985817;28;20060;-73
2022/07/15 11:53:21;;;;;;;0.95;0.50;;;23.60;54.00;;;;;;5025741;28;20129;-74
2022/07/15 11:55:51;;;;;;;3.38;0.82;;;23.70;53.90;;;;;;4994688;28;20062;-74
2022/07/15 11:58:27;;;;;;;1.38;0.70;;;23.50;53.80;;;;;;5007985;28;20050;-74
2022/07/15 12:00:54;;;;;;;1.10;0.60;;;23.60;53.80;;;;;;5008196;28;20060;-74
2022/07/15 12:03:21;;;;;;;2.30;0.70;;;23.50;53.80;;;;;;4992335;28;20565;-74
2022/07/15 12:06:06;;;;;;;1.00;0.50;;;23.40;53.80;;;;;;5007102;28;20549;-74
2022/07/15 12:08:37;;;;;;;0.65;0.50;;;23.60;53.80;;;;;;5009331;28;20074;-74
2022/07/15 12:11:04;;;;;;;1.35;0.68;;;23.50;53.90;;;;;;5008748;28;20141;-74
2022/07/15 12:13:46;;;;;;;0.80;0.73;;;23.50;53.90;;;;;;5009177;28;20132;-74
2022/07/15 12:16:13;;;;;;;1.65;0.70;;;23.50;53.80;;;;;;5009798;28;20136;-73
2022/07/15 12:18:40;;;;;;;1.10;0.60;;;23.60;54.00;;;;;;5009480;28;20042;-73
2022/07/15 12:21:06;;;;;;;0.55;0.50;;;23.50;53.90;;;;;;5009422;28;20058;-74
2022/07/15 12:23:33;;;;;;;0.80;0.60;;;23.40;53.90;;;;;;5009618;28;20136;-74
2022/07/15 12:26:04;;;;;;;1.55;0.40;;;23.40;53.90;;;;;;5009699;28;20054;-74
2022/07/15 12:28:31;;;;;;;1.13;0.60;;;23.40;53.90;;;;;;5009410;28;20081;-73
2022/07/15 12:31:00;;;;;;;2.05;0.63;;;23.40;54.00;;;;;;5009612;28;20045;-73
2022/07/15 12:33:26;;;;;;;1.95;0.68;;;23.30;54.00;;;;;;5008280;28;20064;-74
2022/07/15 12:36:15;;;;;;;1.88;0.90;;;23.30;54.00;;;;;;5009000;28;20145;-73
2022/07/15 12:38:42;;;;;;;1.95;0.90;;;23.30;54.00;;;;;;5013073;28;20472;-74
2022/07/15 12:41:10;;;;;;;2.05;0.77;;;23.30;54.20;;;;;;5012512;28;20049;-73
2022/07/15 12:43:51;;;;;;;1.60;0.88;;;23.30;54.10;;;;;;5012216;28;20164;-73
2022/07/15 12:46:19;;;;;;;1.65;0.80;;;23.30;54.10;;;;;;5011171;28;20054;-73
2022/07/15 12:48:47;;;;;;;1.45;0.80;;;23.30;54.20;;;;;;5013113;28;20487;-73
2022/07/15 12:51:14;;;;;;;1.55;0.65;;;23.20;54.20;;;;;;5012650;28;20570;-73
2022/07/15 12:53:41;;;;;;;2.85;0.80;;;23.20;54.20;;;;;;5013151;28;20089;-73
2022/07/15 12:56:08;;;;;;;0.60;0.50;;;23.20;54.30;;;;;;5012902;28;20065;-73
2022/07/15 12:58:37;;;;;;;1.45;0.70;;;23.20;54.30;;;;;;5012496;28;20671;-72
2022/07/15 13:01:05;;;;;;;1.83;0.90;;;23.10;54.30;;;;;;5012565;28;20057;-72
2022/07/15 13:03:34;;;;;;;2.22;0.90;;;23.20;54.30;;;;;;5012552;28;20064;-72